createdAt,value
2018-05-03T00:00:41.914Z,4.47
2018-05-03T00:03:09.393Z,5.13
2018-05-03T00:05:36.873Z,6.80
2018-05-03T00:08:04.350Z,7.60
2018-05-03T00:10:32.590Z,4.97
2018-05-03T00:13:00.070Z,5.07
2018-05-03T00:15:27.541Z,5.87
2018-05-03T00:17:55.783Z,5.20
2018-05-03T00:20:23.250Z,4.77
2018-05-03T00:22:50.720Z,4.60
2018-05-03T00:25:18.338Z,5.33
2018-05-03T00:27:45.809Z,4.77
2018-05-03T00:30:14.051Z,4.63
2018-05-03T00:32:41.531Z,4.40
2018-05-03T00:35:09.002Z,6.00
2018-05-03T00:37:36.481Z,5.10
2018-05-03T00:40:03.948Z,7.17
2018-05-03T00:42:32.198Z,5.67
2018-05-03T00:44:59.671Z,5.37
2018-05-03T00:47:27.152Z,4.80
2018-05-03T00:49:54.629Z,4.47
2018-05-03T00:52:22.105Z,4.67
2018-05-03T00:54:49.570Z,6.83
2018-05-03T00:57:17.042Z,6.70
2018-05-03T00:59:45.337Z,7.10
2018-05-03T01:02:13.585Z,6.23
2018-05-03T01:04:41.060Z,5.10
2018-05-03T01:07:08.547Z,5.20
2018-05-03T01:09:36.023Z,9.90
2018-05-03T01:12:03.502Z,6.70
2018-05-03T01:14:30.975Z,6.57
2018-05-03T01:16:58.443Z,4.60
2018-05-03T01:19:25.928Z,4.53
2018-05-03T01:21:53.398Z,4.50
2018-05-03T01:24:20.862Z,5.37
2018-05-03T01:26:48.343Z,4.47
2018-05-03T01:29:15.820Z,6.90
2018-05-03T01:31:43.289Z,4.97
2018-05-03T01:34:10.769Z,6.37
2018-05-03T01:36:39.007Z,6.17
2018-05-03T01:39:06.490Z,5.67
2018-05-03T01:41:34.738Z,4.93
2018-05-03T01:44:02.214Z,5.67
2018-05-03T01:46:29.725Z,5.97
2018-05-03T01:48:57.201Z,6.33
2018-05-03T01:51:24.670Z,5.67
2018-05-03T01:53:52.923Z,5.20
2018-05-03T01:56:20.395Z,5.60
2018-05-03T01:58:47.881Z,6.03
2018-05-03T02:01:16.124Z,10.00
2018-05-03T02:03:43.601Z,10.77
2018-05-03T02:06:11.066Z,6.27
2018-05-03T02:08:39.315Z,6.70
2018-05-03T02:11:06.786Z,6.40
2018-05-03T02:13:34.257Z,6.27
2018-05-03T02:16:02.485Z,6.53
2018-05-03T02:18:29.945Z,7.40
2018-05-03T02:20:57.406Z,6.90
2018-05-03T02:23:24.866Z,7.17
2018-05-03T02:25:52.342Z,9.17
2018-05-03T02:28:19.810Z,7.10
2018-05-03T02:30:47.270Z,7.10
2018-05-03T02:33:15.509Z,7.50
2018-05-03T02:35:42.982Z,8.87
2018-05-03T02:38:10.446Z,10.07
2018-05-03T02:40:37.921Z,6.63
2018-05-03T02:43:06.163Z,8.57
2018-05-03T02:45:34.411Z,7.57
2018-05-03T02:48:01.895Z,7.83
2018-05-03T02:50:29.388Z,6.30
2018-05-03T02:52:57.625Z,9.90
2018-05-03T02:55:25.099Z,7.50
2018-05-03T02:58:10.214Z,7.40
2018-05-03T03:00:55.402Z,8.03
2018-05-03T03:03:40.702Z,6.87
2018-05-03T03:06:20.197Z,8.03
2018-05-03T03:09:12.367Z,7.57
2018-05-03T03:11:57.647Z,7.77
2018-05-03T03:14:42.689Z,7.40
2018-05-03T03:17:27.982Z,7.60
2018-05-03T03:20:13.947Z,7.60
2018-05-03T03:22:59.142Z,8.40
2018-05-03T03:29:00.773Z,8.17
2018-05-03T03:31:45.855Z,8.83
2018-05-03T03:34:19.977Z,8.67
2018-05-03T03:37:26.101Z,8.17
2018-05-03T03:40:11.254Z,9.90
2018-05-03T03:45:47.151Z,9.33
2018-05-03T03:48:15.430Z,8.80
2018-05-03T03:50:42.895Z,8.70
2018-05-03T03:53:11.218Z,10.00
2018-05-03T03:55:38.681Z,11.70
2018-05-03T03:58:06.210Z,11.20
2018-05-03T04:00:33.675Z,9.77
2018-05-03T04:03:01.195Z,10.30
2018-05-03T04:05:29.432Z,10.17
2018-05-03T04:07:56.962Z,11.70
2018-05-03T04:10:24.434Z,9.20
2018-05-03T04:12:52.683Z,12.17
2018-05-03T04:15:20.215Z,10.10
2018-05-03T04:17:59.572Z,9.33
2018-05-03T04:20:52.773Z,9.97
2018-05-03T04:23:42.924Z,9.63
2018-05-03T04:26:11.166Z,9.97
2018-05-03T04:28:38.659Z,11.00
2018-05-03T04:31:06.155Z,8.27
2018-05-03T04:33:33.637Z,8.47
2018-05-03T04:36:01.118Z,8.03
2018-05-03T04:38:28.603Z,7.40
2018-05-03T04:40:56.095Z,7.70
2018-05-03T04:43:23.571Z,8.57
2018-05-03T04:45:51.044Z,9.33
2018-05-03T04:48:18.583Z,7.63
2018-05-03T04:50:46.528Z,7.97
2018-05-03T04:53:14.967Z,8.93
2018-05-03T04:55:43.248Z,8.73
2018-05-03T04:58:10.726Z,8.77
2018-05-03T05:00:38.235Z,10.40
2018-05-03T05:03:05.709Z,9.23
2018-05-03T05:05:33.947Z,7.80
2018-05-03T05:08:01.432Z,6.97
2018-05-03T05:10:28.917Z,8.73
2018-05-03T05:12:56.442Z,6.93
2018-05-03T05:15:24.017Z,8.87
2018-05-03T05:17:51.687Z,5.07
2018-05-03T05:20:19.188Z,5.60
2018-05-03T05:22:46.685Z,7.13
2018-05-03T05:25:14.159Z,6.80
2018-05-03T05:27:41.663Z,5.07
2018-05-03T05:30:09.147Z,5.20
2018-05-03T05:32:36.620Z,4.70
2018-05-03T05:35:04.189Z,8.03
2018-05-03T05:37:31.670Z,5.83
2018-05-03T05:39:59.142Z,5.87
2018-05-03T05:42:26.619Z,5.93
2018-05-03T05:44:54.136Z,4.03
2018-05-03T05:47:21.616Z,5.87
2018-05-03T05:49:49.208Z,4.20
2018-05-03T05:52:16.683Z,3.93
2018-05-03T05:54:44.155Z,6.33
2018-05-03T05:57:11.639Z,4.77
2018-05-03T05:59:39.119Z,6.07
2018-05-03T06:02:06.599Z,3.73
2018-05-03T06:04:34.222Z,5.93
2018-05-03T06:07:02.537Z,3.73
2018-05-03T06:09:30.081Z,4.70
2018-05-03T06:11:57.657Z,4.00
2018-05-03T06:14:25.165Z,5.33
2018-05-03T06:16:52.630Z,5.93
2018-05-03T06:19:20.116Z,7.57
2018-05-03T06:21:47.590Z,5.07
2018-05-03T06:24:15.067Z,5.57
2018-05-03T06:26:42.572Z,4.47
2018-05-03T06:29:10.049Z,5.97
2018-05-03T06:31:37.526Z,3.70
2018-05-03T06:34:05.019Z,5.37
2018-05-03T06:36:32.497Z,7.27
2018-05-03T06:38:59.977Z,3.47
2018-05-03T06:41:27.459Z,5.50
2018-05-03T06:43:55.002Z,3.67
2018-05-03T06:46:22.561Z,4.97
2018-05-03T06:48:50.135Z,5.80
2018-05-03T06:51:17.617Z,4.10
2018-05-03T06:53:45.124Z,5.20
2018-05-03T06:56:12.698Z,5.20
2018-05-03T06:58:40.273Z,5.73
2018-05-03T07:01:07.686Z,6.53
2018-05-03T07:03:35.247Z,5.67
2018-05-03T07:06:02.768Z,6.67
2018-05-03T07:08:31.009Z,4.90
2018-05-03T07:10:58.520Z,4.57
2018-05-03T07:13:26.002Z,6.03
2018-05-03T07:15:53.565Z,4.37
2018-05-03T07:18:21.796Z,4.50
2018-05-03T07:20:49.366Z,5.00
2018-05-03T07:23:16.858Z,7.87
2018-05-03T07:25:44.434Z,6.07
2018-05-03T07:28:11.919Z,4.90
2018-05-03T07:30:39.419Z,5.33
2018-05-03T07:33:06.886Z,4.40
2018-05-03T07:35:34.391Z,4.57
2018-05-03T07:38:01.863Z,4.27
2018-05-03T07:40:29.340Z,5.10
2018-05-03T07:42:56.855Z,6.87
2018-05-03T07:45:24.340Z,8.30
2018-05-03T07:47:51.924Z,6.65
2018-05-03T07:50:19.404Z,5.87
2018-05-03T07:52:46.882Z,5.53
2018-05-03T07:55:14.367Z,5.20
2018-05-03T07:57:41.852Z,5.10
2018-05-03T08:00:09.328Z,5.17
2018-05-03T08:02:36.835Z,6.70
2018-05-03T08:05:04.318Z,6.27
2018-05-03T08:07:31.799Z,3.93
2018-05-03T08:09:59.271Z,5.80
2018-05-03T08:12:26.836Z,6.53
2018-05-03T08:14:54.243Z,9.40
2018-05-03T08:17:21.826Z,5.43
2018-05-03T08:19:49.307Z,6.60
2018-05-03T08:22:16.868Z,3.87
2018-05-03T08:24:44.281Z,4.77
2018-05-03T08:27:11.756Z,5.87
2018-05-03T08:29:39.348Z,6.57
2018-05-03T08:32:06.820Z,3.37
2018-05-03T08:34:34.294Z,4.27
2018-05-03T08:37:01.767Z,4.80
2018-05-03T08:39:29.247Z,6.87
2018-05-03T08:41:56.803Z,6.00
2018-05-03T08:44:25.073Z,7.30
2018-05-03T08:46:54.086Z,3.93
2018-05-03T08:49:21.560Z,6.50
2018-05-03T08:51:49.042Z,5.07
2018-05-03T08:54:16.519Z,5.60
2018-05-03T08:56:44.027Z,6.63
2018-05-03T08:59:11.623Z,5.20
2018-05-03T09:01:39.098Z,9.70
2018-05-03T09:04:06.624Z,3.55
2018-05-03T09:06:34.111Z,6.03
2018-05-03T09:09:01.601Z,3.42
2018-05-03T09:11:29.871Z,5.55
2018-05-03T09:13:57.342Z,3.35
2018-05-03T09:16:24.814Z,5.18
2018-05-03T09:18:52.287Z,4.75
2018-05-03T09:21:19.763Z,4.37
2018-05-03T09:23:47.240Z,3.80
2018-05-03T09:26:14.818Z,3.72
2018-05-03T09:28:43.082Z,3.80
2018-05-03T09:31:10.668Z,6.75
2018-05-03T09:33:38.975Z,4.18
2018-05-03T09:36:06.611Z,4.18
2018-05-03T09:38:34.091Z,4.68
2018-05-03T09:41:01.576Z,4.65
2018-05-03T09:43:29.054Z,4.78
2018-05-03T09:45:56.536Z,5.45
2018-05-03T09:48:24.799Z,5.25
2018-05-03T09:50:52.299Z,4.87
2018-05-03T09:53:20.594Z,4.37
2018-05-03T09:55:48.172Z,3.42
2018-05-03T09:58:15.633Z,3.55
2018-05-03T10:00:43.137Z,4.37
2018-05-03T10:03:10.619Z,4.20
2018-05-03T10:05:38.104Z,3.00
2018-05-03T10:08:05.572Z,5.45
2018-05-03T10:10:33.109Z,5.22
2018-05-03T10:13:00.581Z,4.22
2018-05-03T10:15:28.140Z,3.55
2018-05-03T10:17:55.610Z,4.95
2018-05-03T10:20:23.074Z,4.85
2018-05-03T10:22:50.541Z,6.57
2018-05-03T10:25:18.771Z,4.55
2018-05-03T10:27:46.239Z,5.07
2018-05-03T10:30:14.524Z,4.60
2018-05-03T10:32:42.728Z,6.20
2018-05-03T10:35:10.209Z,3.15
2018-05-03T10:37:37.669Z,6.95
2018-05-03T10:40:05.169Z,3.37
2018-05-03T10:42:32.653Z,5.90
2018-05-03T10:45:00.137Z,3.17
2018-05-03T10:47:27.600Z,3.55
2018-05-03T10:49:55.063Z,6.68
2018-05-03T10:52:23.298Z,3.70
2018-05-03T10:54:50.769Z,4.68
2018-05-03T10:57:18.272Z,5.93
2018-05-03T10:59:45.755Z,6.75
2018-05-03T11:02:13.220Z,6.10
2018-05-03T11:04:40.685Z,5.62
2018-05-03T11:07:08.197Z,4.93
2018-05-03T11:09:35.708Z,3.78
2018-05-03T11:12:03.265Z,3.05
2018-05-03T11:14:30.733Z,3.70
2018-05-03T11:16:58.192Z,4.28
2018-05-03T11:19:26.412Z,4.68
2018-05-03T11:21:53.928Z,4.60
2018-05-03T11:24:21.405Z,4.75
2018-05-03T11:26:48.864Z,4.05
2018-05-03T11:29:16.378Z,5.35
2018-05-03T11:31:43.841Z,6.50
2018-05-03T11:34:11.305Z,7.00
2018-05-03T11:36:39.573Z,4.22
2018-05-03T11:39:07.049Z,4.05
2018-05-03T11:41:34.513Z,3.87
2018-05-03T11:44:02.029Z,4.70
2018-05-03T11:46:29.510Z,4.65
2018-05-03T11:48:56.985Z,3.87
2018-05-03T11:51:24.488Z,4.60
2018-05-03T11:53:51.968Z,3.40
2018-05-03T11:56:19.453Z,4.50
2018-05-03T11:58:46.931Z,4.32
2018-05-03T12:01:14.416Z,4.18
2018-05-03T12:03:41.872Z,7.35
2018-05-03T12:06:09.337Z,3.42
2018-05-03T12:08:36.859Z,3.97
2018-05-03T12:11:04.321Z,5.35
2018-05-03T12:13:31.820Z,6.15
2018-05-03T12:15:59.281Z,2.37
2018-05-03T12:18:26.780Z,3.25
2018-05-03T12:20:54.249Z,4.82
2018-05-03T12:23:21.718Z,3.53
2018-05-03T12:25:49.185Z,3.90
2018-05-03T12:28:16.709Z,2.83
2018-05-03T12:30:44.192Z,4.87
2018-05-03T12:33:11.657Z,3.50
2018-05-03T12:35:39.118Z,4.05
2018-05-03T12:38:07.028Z,6.40
2018-05-03T12:40:34.501Z,5.75
2018-05-03T12:43:01.964Z,5.32
2018-05-03T12:45:30.194Z,3.83
2018-05-03T12:47:57.652Z,4.72
2018-05-03T12:50:25.925Z,3.95
2018-05-03T12:52:53.382Z,3.03
2018-05-03T12:55:20.849Z,3.75
2018-05-03T12:57:48.348Z,4.05
2018-05-03T13:00:15.832Z,3.17
2018-05-03T13:02:43.333Z,7.75
2018-05-03T13:05:10.814Z,3.83
2018-05-03T13:07:38.273Z,4.00
2018-05-03T13:10:05.796Z,5.78
2018-05-03T13:12:33.263Z,4.45
2018-05-03T13:15:00.747Z,5.50
2018-05-03T13:17:28.205Z,5.90
2018-05-03T13:19:55.736Z,3.95
2018-05-03T13:22:23.205Z,5.18
2018-05-03T13:24:50.688Z,2.90
2018-05-03T13:27:18.158Z,3.47
2018-05-03T13:29:45.616Z,5.90
2018-05-03T13:32:13.081Z,5.15
2018-05-03T13:34:41.310Z,3.58
2018-05-03T13:37:08.821Z,3.87
2018-05-03T13:39:36.421Z,7.85
2018-05-03T13:42:05.417Z,3.35
2018-05-03T13:44:32.873Z,3.37
2018-05-03T13:47:00.379Z,5.05
2018-05-03T13:49:27.866Z,6.50
2018-05-03T13:51:55.349Z,4.18
2018-05-03T13:54:22.809Z,3.55
2018-05-03T13:56:50.330Z,4.25
2018-05-03T13:59:17.785Z,3.15
2018-05-03T14:01:45.244Z,3.77
2018-05-03T14:04:12.713Z,5.53
2018-05-03T14:06:40.940Z,4.32
2018-05-03T14:09:08.406Z,5.85
2018-05-03T14:11:36.680Z,4.70
2018-05-03T14:14:04.141Z,5.50
2018-05-03T14:16:31.628Z,4.93
2018-05-03T14:18:59.088Z,5.30
2018-05-03T14:21:26.596Z,3.73
2018-05-03T14:23:54.064Z,4.13
2018-05-03T14:26:21.553Z,6.73
2018-05-03T14:28:49.034Z,7.73
2018-05-03T14:31:16.505Z,6.17
2018-05-03T14:33:44.000Z,5.30
2018-05-03T14:36:11.457Z,5.13
2018-05-03T14:38:38.926Z,3.83
2018-05-03T14:41:06.544Z,4.57
2018-05-03T14:43:34.014Z,5.00
2018-05-03T14:46:01.516Z,7.67
2018-05-03T14:48:28.977Z,6.23
2018-05-03T14:50:56.441Z,4.83
2018-05-03T14:53:23.905Z,7.23
2018-05-03T14:55:51.465Z,5.80
2018-05-03T14:58:18.963Z,6.30
2018-05-03T15:00:46.440Z,8.87
2018-05-03T15:03:13.908Z,6.53
2018-05-03T15:05:41.369Z,4.93
2018-05-03T15:08:09.594Z,4.97
2018-05-03T15:10:37.139Z,4.67
2018-05-03T15:13:04.703Z,4.97
2018-05-03T15:15:32.233Z,5.13
2018-05-03T15:18:00.459Z,5.93
2018-05-03T15:20:27.927Z,4.83
2018-05-03T15:22:55.733Z,5.23
2018-05-03T15:25:24.030Z,5.53
2018-05-03T15:27:51.950Z,7.33
2018-05-03T15:30:20.659Z,6.50
2018-05-03T15:32:48.182Z,3.43
2018-05-03T15:35:16.088Z,5.27
2018-05-03T15:37:44.374Z,5.20
2018-05-03T15:40:11.925Z,5.57
2018-05-03T15:42:40.183Z,6.13
2018-05-03T15:45:08.994Z,4.33
2018-05-03T15:47:36.600Z,5.87
2018-05-03T15:50:04.178Z,3.53
2018-05-03T15:52:31.858Z,9.10
2018-05-03T15:55:00.167Z,6.77
2018-05-03T15:57:28.417Z,3.33
2018-05-03T15:59:56.067Z,5.80
2018-05-03T16:02:24.337Z,4.90
2018-05-03T16:04:51.865Z,4.60
2018-05-03T16:07:19.571Z,7.17
2018-05-03T16:09:47.862Z,5.60
2018-05-03T16:12:16.157Z,5.67
2018-05-03T16:14:44.417Z,4.60
2018-05-03T16:17:12.781Z,5.57
2018-05-03T16:19:40.307Z,5.50
2018-05-03T16:22:07.990Z,6.67
2018-05-03T16:24:37.660Z,4.77
2018-05-03T16:27:05.259Z,4.87
2018-05-03T16:29:32.776Z,7.87
2018-05-03T16:32:00.426Z,5.73
2018-05-03T16:34:27.902Z,6.13
2018-05-03T16:36:55.396Z,8.27
2018-05-03T16:39:22.957Z,6.00
2018-05-03T16:41:51.320Z,6.07
2018-05-03T16:44:18.781Z,4.60
2018-05-03T16:46:47.093Z,6.57
2018-05-03T16:49:15.583Z,5.43
2018-05-03T16:51:43.058Z,6.20
2018-05-03T16:54:10.529Z,5.83
2018-05-03T16:56:38.231Z,6.70
2018-05-03T16:59:06.053Z,5.97
2018-05-03T17:01:34.328Z,7.17
2018-05-03T17:04:02.598Z,6.03
2018-05-03T17:06:30.873Z,6.27
2018-05-03T17:08:59.109Z,7.77
2018-05-03T17:11:26.587Z,7.57
2018-05-03T17:13:54.897Z,5.90
2018-05-03T17:16:22.365Z,6.67
2018-05-03T17:18:49.848Z,5.60
2018-05-03T17:21:17.333Z,7.70
2018-05-03T17:23:45.595Z,5.80
2018-05-03T17:26:13.835Z,7.33
2018-05-03T17:28:41.297Z,6.67
2018-05-03T17:31:08.760Z,5.53
2018-05-03T17:33:36.585Z,7.70
2018-05-03T17:36:04.151Z,7.23
2018-05-03T17:38:31.651Z,5.83
2018-05-03T17:40:59.175Z,4.87
2018-05-03T17:43:26.658Z,6.63
2018-05-03T17:45:54.209Z,8.27
2018-05-03T17:48:21.678Z,5.83
2018-05-03T17:50:49.971Z,6.37
2018-05-03T17:53:18.369Z,7.00
2018-05-03T17:55:45.874Z,8.23
2018-05-03T17:58:13.346Z,7.90
2018-05-03T18:00:40.834Z,5.63
2018-05-03T18:03:08.318Z,5.00
2018-05-03T18:05:35.822Z,5.10
2018-05-03T18:08:03.341Z,5.57
2018-05-03T18:10:30.813Z,7.90
2018-05-03T18:12:58.385Z,5.20
2018-05-03T18:15:25.906Z,7.87
2018-05-03T18:17:53.373Z,7.53
2018-05-03T18:20:20.838Z,4.57
2018-05-03T18:22:48.307Z,5.90
2018-05-03T18:25:16.595Z,7.00
2018-05-03T18:27:44.098Z,4.67
2018-05-03T18:30:14.292Z,7.50
2018-05-03T18:32:41.778Z,6.80
2018-05-03T18:35:09.272Z,7.50
2018-05-03T18:37:36.739Z,5.53
2018-05-03T18:40:04.242Z,4.40
2018-05-03T18:42:31.713Z,7.40
2018-05-03T18:44:59.174Z,4.63
2018-05-03T18:47:27.404Z,7.07
2018-05-03T18:49:54.903Z,5.80
2018-05-03T18:52:22.364Z,6.43
2018-05-03T18:54:49.870Z,8.70
2018-05-03T18:57:18.093Z,5.90
2018-05-03T18:59:45.574Z,5.33
2018-05-03T19:02:13.053Z,7.30
2018-05-03T19:04:40.549Z,7.33
2018-05-03T19:07:08.039Z,10.70
2018-05-03T19:09:35.518Z,7.67
2018-05-03T19:12:02.981Z,6.97
2018-05-03T19:14:30.543Z,9.13
2018-05-03T19:16:57.945Z,9.80
2018-05-03T19:19:25.473Z,6.77
2018-05-03T19:21:52.950Z,8.50
2018-05-03T19:24:20.445Z,8.70
2018-05-03T19:26:47.929Z,10.50
2018-05-03T19:29:15.491Z,8.10
2018-05-03T19:31:43.027Z,14.97
2018-05-03T19:34:11.286Z,12.30
2018-05-03T19:36:38.827Z,8.93
2018-05-03T19:39:07.145Z,14.17
2018-05-03T19:41:34.680Z,9.40
2018-05-03T19:44:02.169Z,8.60
2018-05-03T19:46:29.633Z,8.83
2018-05-03T19:48:57.094Z,9.67
2018-05-03T19:51:24.609Z,10.37
2018-05-03T19:53:52.097Z,13.73
2018-05-03T19:56:19.557Z,11.23
2018-05-03T19:58:47.031Z,10.43
2018-05-03T20:01:14.494Z,10.50
2018-05-03T20:03:42.740Z,13.10
2018-05-03T20:06:10.201Z,9.60
2018-05-03T20:08:37.670Z,9.40
2018-05-03T20:11:06.641Z,9.30
2018-05-03T20:13:34.195Z,9.67
2018-05-03T20:16:02.435Z,10.57
2018-05-03T20:18:29.925Z,8.47
2018-05-03T20:20:57.388Z,9.30
2018-05-03T20:23:24.913Z,8.83
2018-05-03T20:25:52.397Z,11.93
2018-05-03T20:28:19.873Z,9.17
2018-05-03T20:30:47.361Z,8.80
2018-05-03T20:33:14.839Z,9.23
2018-05-03T20:35:42.301Z,10.23
2018-05-03T20:38:09.765Z,8.80
2018-05-03T20:40:37.280Z,8.10
2018-05-03T20:43:04.749Z,12.03
2018-05-03T20:45:32.213Z,7.90
2018-05-03T20:48:00.438Z,10.37
2018-05-03T20:50:27.899Z,8.87
2018-05-03T20:52:56.129Z,8.47
2018-05-03T20:55:24.498Z,7.93
2018-05-03T20:57:52.754Z,12.40
2018-05-03T21:00:20.232Z,9.57
2018-05-03T21:02:47.735Z,7.30
2018-05-03T21:05:15.192Z,9.60
2018-05-03T21:07:42.654Z,9.03
2018-05-03T21:10:10.158Z,8.00
2018-05-03T21:12:37.686Z,8.70
2018-05-03T21:15:05.131Z,7.87
2018-05-03T21:17:32.721Z,10.00
2018-05-03T21:20:01.732Z,8.37
2018-05-03T21:22:29.205Z,8.40
2018-05-03T21:24:56.689Z,9.33
2018-05-03T21:27:24.184Z,9.33
2018-05-03T21:29:51.682Z,9.43
2018-05-03T21:32:19.146Z,8.53
2018-05-03T21:34:46.640Z,8.73
2018-05-03T21:37:14.124Z,10.40
2018-05-03T21:39:41.585Z,8.53
2018-05-03T21:42:09.089Z,8.33
2018-05-03T21:44:36.981Z,10.87
2018-05-03T21:47:04.469Z,8.27
2018-05-03T21:49:31.957Z,8.03
2018-05-03T21:51:59.417Z,7.73
2018-05-03T21:54:26.886Z,8.27
2018-05-03T21:56:54.351Z,10.93
2018-05-03T21:59:22.604Z,8.10
2018-05-03T22:01:50.077Z,8.80
2018-05-03T22:04:17.542Z,11.03
2018-05-03T22:06:45.053Z,8.77
2018-05-03T22:09:13.277Z,8.27
2018-05-03T22:11:40.839Z,9.07
2018-05-03T22:14:09.065Z,8.27
2018-05-03T22:16:37.337Z,10.13
2018-05-03T22:19:04.813Z,8.43
2018-05-03T22:21:32.295Z,8.40
2018-05-03T22:23:59.763Z,8.77
2018-05-03T22:26:27.246Z,10.30
2018-05-03T22:28:54.704Z,7.30
2018-05-03T22:31:22.170Z,8.37
2018-05-03T22:33:50.462Z,9.37
2018-05-03T22:36:18.697Z,7.23
2018-05-03T22:38:46.203Z,7.27
2018-05-03T22:41:13.674Z,7.93
2018-05-03T22:43:41.186Z,6.30
2018-05-03T22:46:08.654Z,11.47
2018-05-03T22:48:36.157Z,6.93
2018-05-03T22:51:03.637Z,5.80
2018-05-03T22:53:31.109Z,6.50
2018-05-03T22:55:58.579Z,8.53
2018-05-03T22:58:26.085Z,8.63
2018-05-03T23:00:53.564Z,6.57
2018-05-03T23:03:21.048Z,8.33
2018-05-03T23:05:48.529Z,5.40
2018-05-03T23:08:16.013Z,7.17
2018-05-03T23:10:43.497Z,9.47
2018-05-03T23:13:10.958Z,8.47
2018-05-03T23:15:38.473Z,5.20
2018-05-03T23:18:05.947Z,5.30
2018-05-03T23:20:33.444Z,5.20
2018-05-03T23:23:00.907Z,6.43
2018-05-03T23:25:28.368Z,9.63
2018-05-03T23:27:56.730Z,6.90
2018-05-03T23:30:24.267Z,10.77
2018-05-03T23:32:51.701Z,8.90
2018-05-03T23:35:19.188Z,5.13
2018-05-03T23:37:46.646Z,4.70
2018-05-03T23:40:14.114Z,5.10
2018-05-03T23:42:41.582Z,4.23
2018-05-03T23:45:09.841Z,4.80
2018-05-03T23:47:37.422Z,6.00
2018-05-03T23:50:04.900Z,5.63
2018-05-03T23:52:32.370Z,6.33
2018-05-03T23:54:59.829Z,6.57
2018-05-03T23:57:27.289Z,6.87
2018-05-03T23:59:55.558Z,4.57
